KBML/BML METAR and TAF weather

Enter ICAO airport designator
Station Type Date Time Source
KBML METAR 2020/04/09 19:52 UTC NOAA

KBML 091952Z AUTO 16007KT 5SM -RA BR OVC015 03/01 A2913 RMK AO2 SLP875 P0005 T00280006


Station Type Date Time Source
KBML Decoded METAR 2020/04/09 19:52 UTC NOAA

BERLIN MUNICIPAL AIRPORT, NH, United States (KBML) 44-35N 71-11W 345M
Apr 09, 2020 - 03:52 PM EDT / 2020.04.09 1952 UTC
Wind: from the SSE (160 degrees) at 8 MPH (7 KT):0
Visibility: 5 mile(s):0
Sky conditions: overcast
Weather: light rain; mist
Precipitation last hour: 0.05 inches
Temperature: 37.0 F (2.8 C)
Dew Point: 33.1 F (0.6 C)
Relative Humidity: 85%
Pressure (altimeter): 29.13 in. Hg (986 hPa)
ob: KBML 091952Z AUTO 16007KT 5SM -RA BR OVC015 03/01 A2913 RMK AO2 SLP875 P0005 T00280006
cycle: 20

Station Type Date Time Source
KBML TAF UTC NOAA

Error!

Example: see airport list